createdAt,value
2019-05-02T19:45:21.837Z,989.68
2019-05-02T19:46:51.931Z,989.71
2019-05-02T19:47:54.324Z,989.71
2019-05-02T19:49:47.341Z,989.75
2019-05-02T19:50:44.233Z,989.75
2019-05-02T19:52:40.502Z,989.77
2019-05-02T19:53:38.457Z,989.80
2019-05-02T19:55:33.960Z,989.79
2019-05-02T19:56:45.365Z,989.79
2019-05-02T19:58:27.252Z,989.80
2019-05-02T19:59:29.597Z,989.79
2019-05-02T20:01:22.931Z,989.89
2019-05-02T20:02:22.299Z,989.90
2019-05-02T20:04:16.448Z,989.87
2019-05-02T20:05:16.407Z,989.85
2019-05-02T20:07:12.248Z,989.86
2019-05-02T20:08:14.784Z,989.82
2019-05-02T20:09:11.399Z,989.79
2019-05-02T20:10:12.198Z,989.78
2019-05-02T20:11:12.440Z,989.78
2019-05-02T20:12:15.472Z,989.80
2019-05-02T20:13:12.010Z,989.80
2019-05-02T20:14:12.401Z,989.79
2019-05-02T20:15:12.097Z,989.82
2019-05-02T20:16:11.855Z,989.82
2019-05-02T20:17:14.831Z,989.81
2019-05-02T20:18:11.971Z,989.83
2019-05-02T20:19:12.289Z,989.82
2019-05-02T20:20:12.297Z,989.79
2019-05-02T20:21:13.632Z,989.81
2019-05-02T20:22:11.830Z,989.85
2019-05-02T20:23:17.865Z,989.83
2019-05-02T20:24:17.485Z,989.80
2019-05-02T20:25:12.392Z,989.81
2019-05-02T20:26:15.398Z,989.83
2019-05-02T20:27:12.073Z,989.82
2019-05-02T20:28:10.256Z,989.81
2019-05-02T20:29:10.254Z,989.78
2019-05-02T20:30:12.024Z,989.77
2019-05-02T20:31:12.174Z,989.75
2019-05-02T20:32:10.242Z,989.76
2019-05-02T20:33:10.236Z,989.73
2019-05-02T20:34:11.801Z,989.73
2019-05-02T20:35:11.947Z,989.69
2019-05-02T20:36:12.183Z,989.68
2019-05-02T20:37:12.602Z,989.72
2019-05-02T20:38:11.783Z,989.73
2019-05-02T20:39:11.876Z,989.73
2019-05-02T20:40:11.935Z,989.73
2019-05-02T20:41:12.532Z,989.74
2019-05-02T20:42:11.988Z,989.74
2019-05-02T20:43:12.003Z,989.76
2019-05-02T20:44:12.017Z,989.77
2019-05-02T20:45:11.654Z,989.77
2019-05-02T20:46:11.998Z,989.80
2019-05-02T20:47:12.094Z,989.79
2019-05-02T20:48:11.922Z,989.83
2019-05-02T20:49:10.206Z,989.86
2019-05-02T20:50:11.982Z,989.84
2019-05-02T20:51:11.989Z,989.83
2019-05-02T20:52:11.901Z,989.90
2019-05-02T20:53:12.766Z,989.85
2019-05-02T20:54:12.374Z,989.83
2019-05-02T20:55:12.144Z,989.80
2019-05-02T20:56:12.172Z,989.82
2019-05-02T20:57:12.008Z,989.84
2019-05-02T20:58:10.250Z,989.88
2019-05-02T20:59:12.748Z,989.93
2019-05-02T21:00:12.141Z,989.94
2019-05-02T21:01:12.182Z,989.91
2019-05-02T21:02:12.254Z,989.94
2019-05-02T21:03:11.971Z,989.88
2019-05-02T21:04:12.023Z,989.91
2019-05-02T21:05:11.846Z,989.90
2019-05-02T21:06:12.245Z,989.94
2019-05-02T21:07:10.223Z,989.90
2019-05-02T21:08:10.252Z,989.90
2019-05-02T21:09:10.329Z,989.89
2019-05-02T21:10:10.199Z,989.90
2019-05-02T21:11:12.319Z,989.92
2019-05-02T21:12:12.614Z,989.94
2019-05-02T21:13:10.233Z,989.97
2019-05-02T21:14:12.295Z,989.95
2019-05-02T21:15:12.332Z,989.94
2019-05-02T21:16:12.082Z,989.97
2019-05-02T21:17:10.245Z,990.08
2019-05-02T21:18:11.700Z,990.23
2019-05-02T21:19:12.233Z,990.27
2019-05-02T21:20:12.328Z,990.37
2019-05-02T21:21:10.110Z,990.25
2019-05-02T21:22:10.433Z,990.28
2019-05-02T21:23:10.980Z,990.34
2019-05-02T21:24:10.075Z,990.27
2019-05-02T21:25:10.074Z,990.24
2019-05-02T21:26:10.067Z,990.24
2019-05-02T21:27:10.080Z,990.28
2019-05-02T21:28:11.831Z,990.27
2019-05-02T21:29:11.987Z,990.24
2019-05-02T21:30:12.175Z,990.22
2019-05-02T21:31:11.981Z,990.25
2019-05-02T21:32:12.034Z,990.24
2019-05-02T21:33:11.769Z,990.26
2019-05-02T21:34:11.717Z,990.31
2019-05-02T21:35:11.926Z,990.30
2019-05-02T21:36:12.030Z,990.28
2019-05-02T21:37:10.033Z,990.30
2019-05-02T21:38:11.907Z,990.29
2019-05-02T21:39:11.830Z,990.36
2019-05-02T21:40:11.819Z,990.35
2019-05-02T21:41:10.218Z,990.33
2019-05-02T21:42:10.390Z,990.32
2019-05-02T21:43:12.864Z,990.31
2019-05-02T21:44:10.271Z,990.34
2019-05-02T21:45:10.224Z,990.31
2019-05-02T21:46:10.917Z,990.31
2019-05-02T21:47:10.322Z,990.31
2019-05-02T21:48:10.163Z,990.32
2019-05-02T21:49:11.944Z,990.34
2019-05-02T21:50:10.062Z,990.28
2019-05-02T21:51:12.011Z,990.32
2019-05-02T21:52:11.761Z,990.30
2019-05-02T21:53:10.235Z,990.30
2019-05-02T21:54:12.075Z,990.34
2019-05-02T21:55:09.962Z,990.31
2019-05-02T21:56:09.966Z,990.33
2019-05-02T21:57:12.023Z,990.36
2019-05-02T21:58:12.002Z,990.34
2019-05-02T21:59:11.902Z,990.34
2019-05-02T22:00:11.669Z,990.35
2019-05-02T22:01:10.125Z,990.42
2019-05-02T22:02:11.863Z,990.35
2019-05-02T22:03:09.930Z,990.37
2019-05-02T22:04:09.943Z,990.33
2019-05-02T22:05:10.066Z,990.34
2019-05-02T22:06:12.261Z,990.34
2019-05-02T22:07:12.104Z,990.34
2019-05-02T22:08:12.149Z,990.35
2019-05-02T22:09:12.095Z,990.36
2019-05-02T22:10:12.013Z,990.36
2019-05-02T22:11:12.159Z,990.38
2019-05-02T22:12:11.833Z,990.38
2019-05-02T22:13:11.375Z,990.38
2019-05-02T22:14:13.412Z,990.41
2019-05-02T22:15:09.930Z,990.36
2019-05-02T22:16:10.059Z,990.34
2019-05-02T22:17:12.689Z,990.37
2019-05-02T22:18:09.898Z,990.40
2019-05-02T22:19:11.381Z,990.36
2019-05-02T22:20:10.099Z,990.38
2019-05-02T22:21:09.932Z,990.36
2019-05-02T22:22:09.873Z,990.34
2019-05-02T22:23:11.714Z,990.35
2019-05-02T22:24:13.693Z,990.37
2019-05-02T22:25:11.536Z,990.36
2019-05-02T22:26:09.837Z,990.37
2019-05-02T22:27:09.839Z,990.36
2019-05-02T22:28:09.993Z,990.35
2019-05-02T22:29:09.831Z,990.38
2019-05-02T22:30:09.824Z,990.39
2019-05-02T22:31:12.543Z,990.39
2019-05-02T22:32:12.222Z,990.40
2019-05-02T22:33:11.775Z,990.38
2019-05-02T22:34:09.978Z,990.37
2019-05-02T22:35:12.247Z,990.39
2019-05-02T22:36:10.040Z,990.38
2019-05-02T22:37:09.795Z,990.39
2019-05-02T22:38:11.725Z,990.36
2019-05-02T22:39:09.965Z,990.36
2019-05-02T22:40:10.138Z,990.36
2019-05-02T22:41:10.101Z,990.34
2019-05-02T22:42:12.691Z,990.32
2019-05-02T22:43:09.772Z,990.29
2019-05-02T22:44:09.770Z,990.31
2019-05-02T22:45:10.006Z,990.34
2019-05-02T22:46:09.782Z,990.34
2019-05-02T22:47:11.778Z,990.34
2019-05-02T22:48:14.096Z,990.37
2019-05-02T22:49:11.508Z,990.37
2019-05-02T22:50:09.749Z,990.37
2019-05-02T22:51:09.785Z,990.38
2019-05-02T22:52:10.063Z,990.38
2019-05-02T22:53:09.794Z,990.37
2019-05-02T22:54:23.327Z,990.34
2019-05-02T22:55:09.742Z,990.35
2019-05-02T22:56:11.825Z,990.35
2019-05-02T22:57:11.557Z,990.32
2019-05-02T22:58:09.837Z,990.36
2019-05-02T22:59:09.943Z,990.44
2019-05-02T23:00:09.819Z,990.43
2019-05-02T23:01:10.978Z,990.45
2019-05-02T23:02:12.771Z,990.47
2019-05-02T23:03:12.432Z,990.49
2019-05-02T23:04:10.028Z,990.47
2019-05-02T23:05:09.892Z,990.47
2019-05-02T23:06:12.529Z,990.50
2019-05-02T23:07:12.674Z,990.49
2019-05-02T23:08:12.528Z,990.50
2019-05-02T23:09:09.924Z,990.52
2019-05-02T23:10:09.673Z,990.51
2019-05-02T23:11:09.995Z,990.54
2019-05-02T23:12:09.922Z,990.54
2019-05-02T23:13:09.978Z,990.55
2019-05-02T23:14:09.644Z,990.55
2019-05-02T23:15:09.685Z,990.54
2019-05-02T23:16:10.723Z,990.53
2019-05-02T23:17:12.788Z,990.53
2019-05-02T23:18:09.623Z,990.51
2019-05-02T23:19:12.272Z,990.48
2019-05-02T23:20:09.619Z,990.47
2019-05-02T23:21:09.800Z,990.50
2019-05-02T23:22:09.927Z,990.50
2019-05-02T23:23:12.403Z,990.52
2019-05-02T23:24:09.599Z,990.49
2019-05-02T23:25:11.664Z,990.51
2019-05-02T23:26:09.945Z,990.50
2019-05-02T23:27:11.674Z,990.48
2019-05-02T23:28:09.593Z,990.52
2019-05-02T23:29:09.815Z,990.54
2019-05-02T23:30:11.542Z,990.51
2019-05-02T23:31:11.444Z,990.53
2019-05-02T23:32:09.568Z,990.55
2019-05-02T23:33:09.632Z,990.55
2019-05-02T23:34:09.625Z,990.54
2019-05-02T23:35:09.549Z,990.53
2019-05-02T23:36:09.548Z,990.55
2019-05-02T23:37:11.818Z,990.54
2019-05-02T23:38:09.594Z,990.53
2019-05-02T23:39:09.766Z,990.53
2019-05-02T23:40:12.362Z,990.54
2019-05-02T23:41:09.532Z,990.51
2019-05-02T23:42:09.825Z,990.55
2019-05-02T23:43:09.648Z,990.55
2019-05-02T23:44:09.508Z,990.53
2019-05-02T23:45:09.504Z,990.53
2019-05-02T23:46:09.499Z,990.54
2019-05-02T23:47:09.515Z,990.50
2019-05-02T23:48:09.521Z,990.51
2019-05-02T23:49:09.491Z,990.51
2019-05-02T23:50:09.512Z,990.48
2019-05-02T23:51:09.481Z,990.49
2019-05-02T23:52:09.475Z,990.52
2019-05-02T23:53:09.490Z,990.50
2019-05-02T23:54:09.463Z,990.47
2019-05-02T23:55:09.461Z,990.53
2019-05-02T23:56:09.478Z,990.50
2019-05-02T23:57:09.450Z,990.53
2019-05-02T23:58:09.449Z,990.50
2019-05-02T23:59:09.500Z,990.53
